CheckWX is a tool to help pilots better visualize weather data.  It is not intended as a substitute for an official pre-flight weather briefing.

21:20:05 UTC

CZCP METAR
Cape Parry Airport
Cape Parry, Canada
Current

20 mins ago

CZCP 182100Z AUTO 18010G18KT 120V210 ////SM //// NCD M16/M19 A2985
Observed
Feb-18 @ 21:00 UTC
Wind
  • 180° at 10 KTS
  • Gusting to 18 KTS
Visibility
Cloud Levels
  • Clear skies
Temperature
-16°C / 3°F
Dewpoint
-19°C / -2°F
Humidity
78%
Altimeter
29.85" Hg
Pressure
1010.82 hPa
Previous

1 hour ago

CZCP 182000Z AUTO 18011KT 150V210 ////SM //// NCD M17/M20 A2986
Observed
Feb-18 @ 20:00 UTC
Wind
  • 180° at 11 KTS
Visibility
Cloud Levels
  • Clear skies
Temperature
-17°C / 1°F
Dewpoint
-20°C / -4°F
Humidity
78%
Altimeter
29.86" Hg
Pressure
1011.22 hPa
Previous

2 hours ago

CZCP 181900Z AUTO 19013KT ////SM //// NCD M18/M21 A2987
Observed
Feb-18 @ 19:00 UTC
Wind
  • 190° at 13 KTS
Visibility
Cloud Levels
  • Clear skies
Temperature
-18°C / -0°F
Dewpoint
-21°C / -6°F
Humidity
78%
Altimeter
29.87" Hg
Pressure
1011.52 hPa